sensor_id;sensor_type;location;lat;lon;timestamp;P1;durP1;ratioP1;P2;durP2;ratioP2
38182;SDS011;23991;52.430;10.586;2023-03-20T00:00:03;12.57;;;9.45;;
38182;SDS011;23991;52.430;10.586;2023-03-20T00:02:32;13.85;;;9.15;;
38182;SDS011;23991;52.430;10.586;2023-03-20T00:04:58;12.68;;;8.93;;
38182;SDS011;23991;52.430;10.586;2023-03-20T00:07:23;11.98;;;8.27;;
38182;SDS011;23991;52.430;10.586;2023-03-20T00:09:49;14.77;;;9.25;;
38182;SDS011;23991;52.430;10.586;2023-03-20T00:12:17;13.55;;;8.30;;
38182;SDS011;23991;52.430;10.586;2023-03-20T00:14:46;14.45;;;8.90;;
38182;SDS011;23991;52.430;10.586;2023-03-20T00:17:13;12.48;;;8.20;;
38182;SDS011;23991;52.430;10.586;2023-03-20T00:19:44;13.70;;;8.48;;
38182;SDS011;23991;52.430;10.586;2023-03-20T00:22:10;15.70;;;9.23;;
38182;SDS011;23991;52.430;10.586;2023-03-20T00:24:36;11.35;;;8.65;;
38182;SDS011;23991;52.430;10.586;2023-03-20T00:27:02;12.45;;;8.55;;
38182;SDS011;23991;52.430;10.586;2023-03-20T00:29:30;12.55;;;8.65;;
38182;SDS011;23991;52.430;10.586;2023-03-20T00:31:56;14.15;;;8.98;;
38182;SDS011;23991;52.430;10.586;2023-03-20T00:34:23;14.73;;;8.90;;
38182;SDS011;23991;52.430;10.586;2023-03-20T00:36:51;12.75;;;9.57;;
38182;SDS011;23991;52.430;10.586;2023-03-20T00:39:20;12.15;;;8.98;;
38182;SDS011;23991;52.430;10.586;2023-03-20T00:41:50;13.25;;;9.45;;
38182;SDS011;23991;52.430;10.586;2023-03-20T00:44:31;12.63;;;8.27;;
38182;SDS011;23991;52.430;10.586;2023-03-20T00:47:03;15.00;;;9.23;;
38182;SDS011;23991;52.430;10.586;2023-03-20T00:49:36;15.07;;;9.45;;
38182;SDS011;23991;52.430;10.586;2023-03-20T00:58:46;15.95;;;11.02;;
38182;SDS011;23991;52.430;10.586;2023-03-20T01:01:12;15.20;;;9.73;;
38182;SDS011;23991;52.430;10.586;2023-03-20T01:03:38;15.35;;;10.70;;
38182;SDS011;23991;52.430;10.586;2023-03-20T01:06:04;17.23;;;10.45;;
38182;SDS011;23991;52.430;10.586;2023-03-20T01:08:29;18.80;;;11.43;;
38182;SDS011;23991;52.430;10.586;2023-03-20T01:10:55;15.40;;;10.27;;
38182;SDS011;23991;52.430;10.586;2023-03-20T01:13:24;14.82;;;10.30;;
38182;SDS011;23991;52.430;10.586;2023-03-20T01:15:52;16.67;;;10.77;;
38182;SDS011;23991;52.430;10.586;2023-03-20T01:18:20;17.45;;;10.80;;
38182;SDS011;23991;52.430;10.586;2023-03-20T01:30:57;15.25;;;10.07;;
38182;SDS011;23991;52.430;10.586;2023-03-20T01:33:24;19.90;;;11.32;;
38182;SDS011;23991;52.430;10.586;2023-03-20T01:35:50;15.98;;;10.93;;
38182;SDS011;23991;52.430;10.586;2023-03-20T01:38:19;17.90;;;11.30;;
38182;SDS011;23991;52.430;10.586;2023-03-20T01:40:58;19.98;;;12.65;;
38182;SDS011;23991;52.430;10.586;2023-03-20T01:43:28;23.67;;;15.25;;
38182;SDS011;23991;52.430;10.586;2023-03-20T02:01:08;25.27;;;16.92;;
38182;SDS011;23991;52.430;10.586;2023-03-20T02:03:37;27.27;;;17.93;;
38182;SDS011;23991;52.430;10.586;2023-03-20T02:06:06;27.02;;;17.63;;
38182;SDS011;23991;52.430;10.586;2023-03-20T02:08:34;28.05;;;17.88;;
38182;SDS011;23991;52.430;10.586;2023-03-20T02:11:05;26.52;;;16.77;;
38182;SDS011;23991;52.430;10.586;2023-03-20T02:13:31;31.30;;;17.60;;
38182;SDS011;23991;52.430;10.586;2023-03-20T02:18:29;30.02;;;18.65;;
38182;SDS011;23991;52.430;10.586;2023-03-20T02:31:12;33.00;;;18.00;;
38182;SDS011;23991;52.430;10.586;2023-03-20T02:34:02;34.50;;;19.30;;
38182;SDS011;23991;52.430;10.586;2023-03-20T02:36:38;36.60;;;21.10;;
38182;SDS011;23991;52.430;10.586;2023-03-20T02:39:23;38.20;;;20.92;;
38182;SDS011;23991;52.430;10.586;2023-03-20T02:45:30;34.25;;;18.55;;
38182;SDS011;23991;52.430;10.586;2023-03-20T03:00:55;33.47;;;18.70;;
38182;SDS011;23991;52.430;10.586;2023-03-20T03:03:31;35.97;;;19.70;;
38182;SDS011;23991;52.430;10.586;2023-03-20T03:09:17;38.10;;;17.67;;
38182;SDS011;23991;52.430;10.586;2023-03-20T03:11:50;38.08;;;20.60;;
38182;SDS011;23991;52.430;10.586;2023-03-20T03:14:54;42.53;;;20.65;;
38182;SDS011;23991;52.430;10.586;2023-03-20T03:17:17;37.47;;;20.75;;
38182;SDS011;23991;52.430;10.586;2023-03-20T03:29:54;40.38;;;19.80;;
38182;SDS011;23991;52.430;10.586;2023-03-20T03:32:32;43.83;;;21.70;;
38182;SDS011;23991;52.430;10.586;2023-03-20T03:35:00;41.10;;;19.88;;
38182;SDS011;23991;52.430;10.586;2023-03-20T03:43:21;42.63;;;20.92;;
38182;SDS011;23991;52.430;10.586;2023-03-20T03:45:57;41.30;;;20.52;;
38182;SDS011;23991;52.430;10.586;2023-03-20T03:48:30;39.17;;;22.13;;
38182;SDS011;23991;52.430;10.586;2023-03-20T04:01:04;43.88;;;22.17;;
38182;SDS011;23991;52.430;10.586;2023-03-20T04:03:37;47.10;;;22.17;;
38182;SDS011;23991;52.430;10.586;2023-03-20T04:06:04;45.85;;;21.20;;
38182;SDS011;23991;52.430;10.586;2023-03-20T04:08:33;41.33;;;21.52;;
38182;SDS011;23991;52.430;10.586;2023-03-20T04:10:59;48.95;;;22.05;;
38182;SDS011;23991;52.430;10.586;2023-03-20T04:13:25;50.85;;;22.45;;
38182;SDS011;23991;52.430;10.586;2023-03-20T04:15:51;47.47;;;22.08;;
38182;SDS011;23991;52.430;10.586;2023-03-20T04:18:17;41.72;;;21.98;;
38182;SDS011;23991;52.430;10.586;2023-03-20T04:30:52;44.45;;;21.42;;
38182;SDS011;23991;52.430;10.586;2023-03-20T04:33:19;41.50;;;20.02;;
38182;SDS011;23991;52.430;10.586;2023-03-20T04:35:45;46.78;;;20.90;;
38182;SDS011;23991;52.430;10.586;2023-03-20T04:38:11;43.35;;;20.92;;
38182;SDS011;23991;52.430;10.586;2023-03-20T04:40:37;36.70;;;19.92;;
38182;SDS011;23991;52.430;10.586;2023-03-20T04:43:02;35.90;;;18.52;;
38182;SDS011;23991;52.430;10.586;2023-03-20T04:45:28;40.85;;;19.42;;
38182;SDS011;23991;52.430;10.586;2023-03-20T04:47:54;38.70;;;19.80;;
38182;SDS011;23991;52.430;10.586;2023-03-20T05:00:26;35.58;;;16.48;;
38182;SDS011;23991;52.430;10.586;2023-03-20T05:02:51;37.80;;;17.92;;
38182;SDS011;23991;52.430;10.586;2023-03-20T05:05:17;38.47;;;18.25;;
38182;SDS011;23991;52.430;10.586;2023-03-20T05:07:43;34.45;;;17.05;;
38182;SDS011;23991;52.430;10.586;2023-03-20T05:10:08;35.72;;;16.90;;
38182;SDS011;23991;52.430;10.586;2023-03-20T05:12:35;38.42;;;17.40;;
38182;SDS011;23991;52.430;10.586;2023-03-20T05:15:00;33.78;;;16.48;;
38182;SDS011;23991;52.430;10.586;2023-03-20T05:17:26;35.08;;;17.83;;
38182;SDS011;23991;52.430;10.586;2023-03-20T05:29:59;30.65;;;14.95;;
38182;SDS011;23991;52.430;10.586;2023-03-20T05:32:25;32.22;;;15.15;;
38182;SDS011;23991;52.430;10.586;2023-03-20T05:34:51;27.75;;;13.82;;
38182;SDS011;23991;52.430;10.586;2023-03-20T05:37:16;29.05;;;13.57;;
38182;SDS011;23991;52.430;10.586;2023-03-20T05:39:42;32.33;;;14.43;;
38182;SDS011;23991;52.430;10.586;2023-03-20T05:42:08;29.55;;;13.55;;
38182;SDS011;23991;52.430;10.586;2023-03-20T05:44:33;27.52;;;12.52;;
38182;SDS011;23991;52.430;10.586;2023-03-20T05:46:59;25.65;;;13.25;;
38182;SDS011;23991;52.430;10.586;2023-03-20T05:49:24;25.25;;;11.95;;
38182;SDS011;23991;52.430;10.586;2023-03-20T05:58:49;28.35;;;14.20;;
38182;SDS011;23991;52.430;10.586;2023-03-20T06:01:16;23.50;;;12.60;;
38182;SDS011;23991;52.430;10.586;2023-03-20T06:03:45;21.60;;;12.20;;
38182;SDS011;23991;52.430;10.586;2023-03-20T06:06:14;24.42;;;12.75;;
38182;SDS011;23991;52.430;10.586;2023-03-20T06:08:40;26.98;;;12.75;;
38182;SDS011;23991;52.430;10.586;2023-03-20T06:11:06;24.35;;;13.57;;
38182;SDS011;23991;52.430;10.586;2023-03-20T06:13:32;25.38;;;13.20;;
38182;SDS011;23991;52.430;10.586;2023-03-20T06:15:58;27.50;;;13.77;;
38182;SDS011;23991;52.430;10.586;2023-03-20T06:18:24;28.90;;;14.52;;
38182;SDS011;23991;52.430;10.586;2023-03-20T06:30:57;34.40;;;16.08;;
38182;SDS011;23991;52.430;10.586;2023-03-20T06:33:22;31.30;;;15.68;;
38182;SDS011;23991;52.430;10.586;2023-03-20T06:35:48;31.30;;;16.65;;
38182;SDS011;23991;52.430;10.586;2023-03-20T06:38:14;29.27;;;14.50;;
38182;SDS011;23991;52.430;10.586;2023-03-20T06:40:40;31.17;;;15.20;;
38182;SDS011;23991;52.430;10.586;2023-03-20T06:43:09;32.58;;;14.98;;
38182;SDS011;23991;52.430;10.586;2023-03-20T06:45:36;34.83;;;16.50;;
38182;SDS011;23991;52.430;10.586;2023-03-20T06:48:08;26.88;;;14.90;;
38182;SDS011;23991;52.430;10.586;2023-03-20T06:50:37;32.28;;;15.18;;
38182;SDS011;23991;52.430;10.586;2023-03-20T06:53:03;31.05;;;15.73;;
38182;SDS011;23991;52.430;10.586;2023-03-20T06:55:28;29.60;;;15.95;;
38182;SDS011;23991;52.430;10.586;2023-03-20T06:57:54;32.92;;;15.20;;
38182;SDS011;23991;52.430;10.586;2023-03-20T07:00:19;29.02;;;14.80;;
38182;SDS011;23991;52.430;10.586;2023-03-20T07:02:46;29.15;;;15.30;;
38182;SDS011;23991;52.430;10.586;2023-03-20T07:05:12;28.60;;;15.05;;
38182;SDS011;23991;52.430;10.586;2023-03-20T07:07:38;29.10;;;14.98;;
38182;SDS011;23991;52.430;10.586;2023-03-20T07:10:04;31.70;;;14.98;;
38182;SDS011;23991;52.430;10.586;2023-03-20T07:12:31;28.08;;;14.45;;
38182;SDS011;23991;52.430;10.586;2023-03-20T07:14:56;30.45;;;16.05;;
38182;SDS011;23991;52.430;10.586;2023-03-20T07:17:22;28.52;;;14.70;;
38182;SDS011;23991;52.430;10.586;2023-03-20T07:22:35;31.95;;;15.07;;
38182;SDS011;23991;52.430;10.586;2023-03-20T07:25:01;29.65;;;14.57;;
38182;SDS011;23991;52.430;10.586;2023-03-20T07:27:27;29.60;;;15.68;;
38182;SDS011;23991;52.430;10.586;2023-03-20T07:29:53;29.98;;;14.57;;
38182;SDS011;23991;52.430;10.586;2023-03-20T07:32:18;33.03;;;14.82;;
38182;SDS011;23991;52.430;10.586;2023-03-20T07:34:44;30.88;;;14.85;;
38182;SDS011;23991;52.430;10.586;2023-03-20T07:37:11;29.52;;;15.40;;
38182;SDS011;23991;52.430;10.586;2023-03-20T07:39:37;32.17;;;16.20;;
38182;SDS011;23991;52.430;10.586;2023-03-20T07:48:52;30.25;;;14.48;;
38182;SDS011;23991;52.430;10.586;2023-03-20T07:51:18;30.35;;;15.18;;
38182;SDS011;23991;52.430;10.586;2023-03-20T07:53:44;29.55;;;15.90;;
38182;SDS011;23991;52.430;10.586;2023-03-20T07:56:09;29.73;;;15.75;;
38182;SDS011;23991;52.430;10.586;2023-03-20T07:58:35;32.85;;;16.92;;
38182;SDS011;23991;52.430;10.586;2023-03-20T08:01:00;27.77;;;14.52;;
38182;SDS011;23991;52.430;10.586;2023-03-20T08:03:27;33.50;;;16.75;;
38182;SDS011;23991;52.430;10.586;2023-03-20T08:05:53;28.95;;;15.95;;
38182;SDS011;23991;52.430;10.586;2023-03-20T08:08:19;29.92;;;15.52;;
38182;SDS011;23991;52.430;10.586;2023-03-20T08:20:50;32.33;;;16.75;;
38182;SDS011;23991;52.430;10.586;2023-03-20T08:23:16;29.17;;;16.08;;
38182;SDS011;23991;52.430;10.586;2023-03-20T08:25:45;31.45;;;15.82;;
38182;SDS011;23991;52.430;10.586;2023-03-20T08:28:15;29.20;;;16.40;;
38182;SDS011;23991;52.430;10.586;2023-03-20T08:30:41;28.73;;;16.23;;
38182;SDS011;23991;52.430;10.586;2023-03-20T08:33:06;29.15;;;16.35;;
38182;SDS011;23991;52.430;10.586;2023-03-20T08:35:32;31.65;;;16.98;;
38182;SDS011;23991;52.430;10.586;2023-03-20T08:37:58;36.85;;;18.88;;
38182;SDS011;23991;52.430;10.586;2023-03-20T08:40:24;35.30;;;17.98;;
38182;SDS011;23991;52.430;10.586;2023-03-20T08:42:49;33.63;;;16.92;;
38182;SDS011;23991;52.430;10.586;2023-03-20T08:45:15;30.45;;;16.88;;
38182;SDS011;23991;52.430;10.586;2023-03-20T08:47:41;33.83;;;18.00;;
38182;SDS011;23991;52.430;10.586;2023-03-20T08:50:07;27.30;;;15.07;;
38182;SDS011;23991;52.430;10.586;2023-03-20T08:59:17;30.23;;;15.65;;
38182;SDS011;23991;52.430;10.586;2023-03-20T09:01:43;24.40;;;14.05;;
38182;SDS011;23991;52.430;10.586;2023-03-20T09:04:09;23.40;;;12.98;;
38182;SDS011;23991;52.430;10.586;2023-03-20T09:06:36;22.20;;;12.80;;
38182;SDS011;23991;52.430;10.586;2023-03-20T09:09:02;23.75;;;12.70;;
38182;SDS011;23991;52.430;10.586;2023-03-20T09:11:27;19.05;;;11.43;;
38182;SDS011;23991;52.430;10.586;2023-03-20T09:13:53;21.30;;;11.82;;
38182;SDS011;23991;52.430;10.586;2023-03-20T09:16:19;20.25;;;11.90;;
38182;SDS011;23991;52.430;10.586;2023-03-20T09:18:44;18.55;;;10.77;;
38182;SDS011;23991;52.430;10.586;2023-03-20T09:21:10;15.25;;;10.27;;
38182;SDS011;23991;52.430;10.586;2023-03-20T09:23:40;16.48;;;10.00;;
38182;SDS011;23991;52.430;10.586;2023-03-20T09:26:06;17.80;;;10.73;;
38182;SDS011;23991;52.430;10.586;2023-03-20T09:28:32;20.30;;;10.95;;
38182;SDS011;23991;52.430;10.586;2023-03-20T09:30:58;18.25;;;11.10;;
38182;SDS011;23991;52.430;10.586;2023-03-20T09:33:31;15.68;;;9.85;;
38182;SDS011;23991;52.430;10.586;2023-03-20T09:36:06;15.32;;;9.48;;
38182;SDS011;23991;52.430;10.586;2023-03-20T09:38:35;16.85;;;10.43;;
38182;SDS011;23991;52.430;10.586;2023-03-20T09:41:05;16.17;;;9.88;;
38182;SDS011;23991;52.430;10.586;2023-03-20T09:43:44;17.20;;;10.32;;
38182;SDS011;23991;52.430;10.586;2023-03-20T09:49:29;17.17;;;11.05;;
38182;SDS011;23991;52.430;10.586;2023-03-20T09:52:11;19.02;;;11.10;;
38182;SDS011;23991;52.430;10.586;2023-03-20T09:55:17;20.50;;;11.77;;
38182;SDS011;23991;52.430;10.586;2023-03-20T09:57:52;20.80;;;12.50;;
38182;SDS011;23991;52.430;10.586;2023-03-20T10:00:24;19.63;;;10.55;;
38182;SDS011;23991;52.430;10.586;2023-03-20T10:02:54;19.40;;;11.83;;
38182;SDS011;23991;52.430;10.586;2023-03-20T10:05:59;16.35;;;11.18;;
38182;SDS011;23991;52.430;10.586;2023-03-20T10:08:20;19.77;;;11.27;;
38182;SDS011;23991;52.430;10.586;2023-03-20T10:18:59;20.63;;;11.95;;
38182;SDS011;23991;52.430;10.586;2023-03-20T10:21:34;18.63;;;11.75;;
38182;SDS011;23991;52.430;10.586;2023-03-20T10:26:50;19.45;;;11.15;;
38182;SDS011;23991;52.430;10.586;2023-03-20T10:29:37;18.85;;;12.07;;
38182;SDS011;23991;52.430;10.586;2023-03-20T10:32:32;18.40;;;10.80;;
38182;SDS011;23991;52.430;10.586;2023-03-20T10:35:17;18.60;;;10.43;;
38182;SDS011;23991;52.430;10.586;2023-03-20T10:40:49;21.02;;;11.93;;
38182;SDS011;23991;52.430;10.586;2023-03-20T10:43:25;19.83;;;11.70;;
38182;SDS011;23991;52.430;10.586;2023-03-20T10:46:06;17.80;;;11.35;;
38182;SDS011;23991;52.430;10.586;2023-03-20T10:51:19;19.13;;;10.73;;
38182;SDS011;23991;52.430;10.586;2023-03-20T10:56:28;15.15;;;9.68;;
38182;SDS011;23991;52.430;10.586;2023-03-20T10:59:28;18.80;;;11.00;;
38182;SDS011;23991;52.430;10.586;2023-03-20T11:02:13;15.27;;;9.82;;
38182;SDS011;23991;52.430;10.586;2023-03-20T11:04:41;15.18;;;9.45;;
38182;SDS011;23991;52.430;10.586;2023-03-20T11:07:11;17.23;;;10.73;;
38182;SDS011;23991;52.430;10.586;2023-03-20T11:09:44;15.55;;;9.40;;
38182;SDS011;23991;52.430;10.586;2023-03-20T11:12:14;16.20;;;10.68;;
38182;SDS011;23991;52.430;10.586;2023-03-20T11:14:44;17.55;;;9.93;;
38182;SDS011;23991;52.430;10.586;2023-03-20T11:17:10;17.08;;;11.02;;
38182;SDS011;23991;52.430;10.586;2023-03-20T11:19:43;16.38;;;11.00;;
38182;SDS011;23991;52.430;10.586;2023-03-20T11:22:22;16.05;;;10.75;;
38182;SDS011;23991;52.430;10.586;2023-03-20T11:24:56;15.02;;;10.57;;
38182;SDS011;23991;52.430;10.586;2023-03-20T11:27:26;17.67;;;11.05;;
38182;SDS011;23991;52.430;10.586;2023-03-20T11:30:01;16.65;;;11.23;;
38182;SDS011;23991;52.430;10.586;2023-03-20T11:35:08;16.38;;;11.13;;
38182;SDS011;23991;52.430;10.586;2023-03-20T11:37:44;15.43;;;10.45;;
38182;SDS011;23991;52.430;10.586;2023-03-20T11:42:50;18.35;;;11.50;;
38182;SDS011;23991;52.430;10.586;2023-03-20T11:51:29;14.38;;;9.90;;
38182;SDS011;23991;52.430;10.586;2023-03-20T11:53:59;12.90;;;9.55;;
38182;SDS011;23991;52.430;10.586;2023-03-20T11:56:28;14.93;;;10.80;;
38182;SDS011;23991;52.430;10.586;2023-03-20T12:01:50;13.30;;;9.05;;
38182;SDS011;23991;52.430;10.586;2023-03-20T12:18:56;9.82;;;7.25;;
38182;SDS011;23991;52.430;10.586;2023-03-20T12:26:43;12.60;;;8.02;;
38182;SDS011;23991;52.430;10.586;2023-03-20T12:32:34;12.27;;;7.50;;
38182;SDS011;23991;52.430;10.586;2023-03-20T12:35:10;12.50;;;7.70;;
38182;SDS011;23991;52.430;10.586;2023-03-20T12:37:46;12.75;;;8.30;;
38182;SDS011;23991;52.430;10.586;2023-03-20T12:50:35;8.80;;;4.88;;
38182;SDS011;23991;52.430;10.586;2023-03-20T12:58:37;10.32;;;5.22;;
38182;SDS011;23991;52.430;10.586;2023-03-20T13:01:20;8.35;;;5.53;;
38182;SDS011;23991;52.430;10.586;2023-03-20T13:06:54;8.45;;;5.05;;
38182;SDS011;23991;52.430;10.586;2023-03-20T13:21:26;6.93;;;4.60;;
38182;SDS011;23991;52.430;10.586;2023-03-20T13:27:13;6.78;;;4.68;;
38182;SDS011;23991;52.430;10.586;2023-03-20T13:30:06;6.55;;;4.63;;
38182;SDS011;23991;52.430;10.586;2023-03-20T13:32:43;8.15;;;4.93;;
38182;SDS011;23991;52.430;10.586;2023-03-20T13:35:27;6.50;;;4.97;;
38182;SDS011;23991;52.430;10.586;2023-03-20T13:38:23;9.07;;;4.78;;
38182;SDS011;23991;52.430;10.586;2023-03-20T13:51:03;7.93;;;4.68;;
38182;SDS011;23991;52.430;10.586;2023-03-20T13:57:21;12.90;;;5.55;;
38182;SDS011;23991;52.430;10.586;2023-03-20T13:59:33;8.45;;;5.60;;
38182;SDS011;23991;52.430;10.586;2023-03-20T14:02:26;8.50;;;5.45;;
38182;SDS011;23991;52.430;10.586;2023-03-20T14:05:11;9.25;;;5.53;;
38182;SDS011;23991;52.430;10.586;2023-03-20T14:07:42;7.80;;;5.40;;
38182;SDS011;23991;52.430;10.586;2023-03-20T14:20:32;7.93;;;5.68;;
38182;SDS011;23991;52.430;10.586;2023-03-20T14:23:00;9.82;;;5.53;;
38182;SDS011;23991;52.430;10.586;2023-03-20T14:25:27;7.68;;;5.32;;
38182;SDS011;23991;52.430;10.586;2023-03-20T14:28:05;12.57;;;5.97;;
38182;SDS011;23991;52.430;10.586;2023-03-20T14:35:45;14.38;;;6.15;;
38182;SDS011;23991;52.430;10.586;2023-03-20T14:51:25;9.38;;;6.05;;
38182;SDS011;23991;52.430;10.586;2023-03-20T14:54:41;9.30;;;7.10;;
38182;SDS011;23991;52.430;10.586;2023-03-20T14:56:52;8.52;;;6.05;;
38182;SDS011;23991;52.430;10.586;2023-03-20T14:59:22;9.57;;;6.65;;
38182;SDS011;23991;52.430;10.586;2023-03-20T15:04:24;9.65;;;6.85;;
38182;SDS011;23991;52.430;10.586;2023-03-20T15:06:58;8.80;;;6.25;;
38182;SDS011;23991;52.430;10.586;2023-03-20T15:09:36;11.65;;;6.68;;
38182;SDS011;23991;52.430;10.586;2023-03-20T15:18:59;9.60;;;5.95;;
38182;SDS011;23991;52.430;10.586;2023-03-20T15:21:31;7.38;;;5.78;;
38182;SDS011;23991;52.430;10.586;2023-03-20T15:24:02;8.85;;;5.53;;
38182;SDS011;23991;52.430;10.586;2023-03-20T15:26:28;8.77;;;6.10;;
38182;SDS011;23991;52.430;10.586;2023-03-20T15:29:00;10.45;;;5.78;;
38182;SDS011;23991;52.430;10.586;2023-03-20T15:31:36;8.85;;;6.50;;
38182;SDS011;23991;52.430;10.586;2023-03-20T15:34:06;8.23;;;6.15;;
38182;SDS011;23991;52.430;10.586;2023-03-20T15:36:33;8.63;;;6.05;;
38182;SDS011;23991;52.430;10.586;2023-03-20T15:39:25;15.88;;;5.97;;
38182;SDS011;23991;52.430;10.586;2023-03-20T15:51:25;9.48;;;7.00;;
38182;SDS011;23991;52.430;10.586;2023-03-20T15:53:52;9.63;;;5.78;;
38182;SDS011;23991;52.430;10.586;2023-03-20T15:56:18;7.30;;;5.60;;
38182;SDS011;23991;52.430;10.586;2023-03-20T15:58:48;10.40;;;5.32;;
38182;SDS011;23991;52.430;10.586;2023-03-20T16:01:20;8.90;;;5.80;;
38182;SDS011;23991;52.430;10.586;2023-03-20T16:03:48;7.43;;;5.32;;
38182;SDS011;23991;52.430;10.586;2023-03-20T16:06:16;9.07;;;5.38;;
38182;SDS011;23991;52.430;10.586;2023-03-20T16:08:45;13.18;;;5.75;;
38182;SDS011;23991;52.430;10.586;2023-03-20T16:21:27;10.75;;;6.88;;
38182;SDS011;23991;52.430;10.586;2023-03-20T16:23:56;10.27;;;7.00;;
38182;SDS011;23991;52.430;10.586;2023-03-20T16:26:23;12.50;;;7.35;;
38182;SDS011;23991;52.430;10.586;2023-03-20T16:28:55;12.35;;;6.68;;
38182;SDS011;23991;52.430;10.586;2023-03-20T16:31:26;12.40;;;7.05;;
38182;SDS011;23991;52.430;10.586;2023-03-20T16:34:07;9.88;;;6.95;;
38182;SDS011;23991;52.430;10.586;2023-03-20T16:36:42;10.80;;;7.97;;
38182;SDS011;23991;52.430;10.586;2023-03-20T16:44:43;15.15;;;6.70;;
38182;SDS011;23991;52.430;10.586;2023-03-20T16:52:30;10.82;;;7.38;;
38182;SDS011;23991;52.430;10.586;2023-03-20T17:01:26;13.15;;;7.85;;
38182;SDS011;23991;52.430;10.586;2023-03-20T17:03:57;12.85;;;7.63;;
38182;SDS011;23991;52.430;10.586;2023-03-20T17:06:35;15.27;;;8.38;;
38182;SDS011;23991;52.430;10.586;2023-03-20T17:12:29;16.40;;;8.88;;
38182;SDS011;23991;52.430;10.586;2023-03-20T17:14:56;13.93;;;8.93;;
38182;SDS011;23991;52.430;10.586;2023-03-20T17:17:21;18.17;;;9.45;;
38182;SDS011;23991;52.430;10.586;2023-03-20T17:19:49;14.75;;;10.40;;
38182;SDS011;23991;52.430;10.586;2023-03-20T17:22:22;26.38;;;17.45;;
38182;SDS011;23991;52.430;10.586;2023-03-20T17:24:49;34.42;;;24.05;;
38182;SDS011;23991;52.430;10.586;2023-03-20T17:27:16;48.85;;;27.25;;
38182;SDS011;23991;52.430;10.586;2023-03-20T17:29:42;17.60;;;12.73;;
38182;SDS011;23991;52.430;10.586;2023-03-20T17:32:13;37.45;;;23.40;;
38182;SDS011;23991;52.430;10.586;2023-03-20T17:34:41;36.45;;;22.55;;
38182;SDS011;23991;52.430;10.586;2023-03-20T17:37:17;34.80;;;19.83;;
38182;SDS011;23991;52.430;10.586;2023-03-20T17:40:09;14.98;;;10.85;;
38182;SDS011;23991;52.430;10.586;2023-03-20T17:42:45;15.60;;;12.23;;
38182;SDS011;23991;52.430;10.586;2023-03-20T17:45:14;18.17;;;13.23;;
38182;SDS011;23991;52.430;10.586;2023-03-20T17:47:41;11.05;;;7.80;;
38182;SDS011;23991;52.430;10.586;2023-03-20T17:50:10;9.32;;;6.93;;
38182;SDS011;23991;52.430;10.586;2023-03-20T17:52:48;10.82;;;7.20;;
38182;SDS011;23991;52.430;10.586;2023-03-20T18:01:30;11.32;;;6.50;;
38182;SDS011;23991;52.430;10.586;2023-03-20T18:03:56;10.85;;;6.10;;
38182;SDS011;23991;52.430;10.586;2023-03-20T18:06:23;11.52;;;6.45;;
38182;SDS011;23991;52.430;10.586;2023-03-20T18:08:51;9.25;;;6.20;;
38182;SDS011;23991;52.430;10.586;2023-03-20T18:11:17;9.95;;;6.88;;
38182;SDS011;23991;52.430;10.586;2023-03-20T18:13:43;9.57;;;6.20;;
38182;SDS011;23991;52.430;10.586;2023-03-20T18:16:13;10.75;;;6.43;;
38182;SDS011;23991;52.430;10.586;2023-03-20T18:18:44;14.35;;;6.78;;
38182;SDS011;23991;52.430;10.586;2023-03-20T18:31:17;159.68;;;50.08;;
38182;SDS011;23991;52.430;10.586;2023-03-20T18:33:44;121.93;;;37.33;;
38182;SDS011;23991;52.430;10.586;2023-03-20T18:36:14;91.07;;;32.30;;
38182;SDS011;23991;52.430;10.586;2023-03-20T18:38:48;63.50;;;24.40;;
38182;SDS011;23991;52.430;10.586;2023-03-20T18:41:15;36.00;;;15.57;;
38182;SDS011;23991;52.430;10.586;2023-03-20T18:43:41;16.17;;;9.50;;
38182;SDS011;23991;52.430;10.586;2023-03-20T18:46:11;21.73;;;13.93;;
38182;SDS011;23991;52.430;10.586;2023-03-20T18:48:42;21.67;;;14.38;;
38182;SDS011;23991;52.430;10.586;2023-03-20T18:51:21;14.05;;;10.40;;
38182;SDS011;23991;52.430;10.586;2023-03-20T18:53:49;15.77;;;10.13;;
38182;SDS011;23991;52.430;10.586;2023-03-20T18:56:22;14.93;;;9.98;;
38182;SDS011;23991;52.430;10.586;2023-03-20T18:58:50;15.57;;;11.30;;
38182;SDS011;23991;52.430;10.586;2023-03-20T19:01:16;14.77;;;11.55;;
38182;SDS011;23991;52.430;10.586;2023-03-20T19:03:43;12.85;;;10.20;;
38182;SDS011;23991;52.430;10.586;2023-03-20T19:06:26;17.17;;;10.35;;
38182;SDS011;23991;52.430;10.586;2023-03-20T19:08:56;12.85;;;10.57;;
38182;SDS011;23991;52.430;10.586;2023-03-20T19:11:21;15.82;;;10.15;;
38182;SDS011;23991;52.430;10.586;2023-03-20T19:13:50;16.00;;;9.98;;
38182;SDS011;23991;52.430;10.586;2023-03-20T19:16:21;16.85;;;9.35;;
38182;SDS011;23991;52.430;10.586;2023-03-20T19:18:49;14.90;;;9.48;;
38182;SDS011;23991;52.430;10.586;2023-03-20T19:21:18;12.57;;;9.40;;
38182;SDS011;23991;52.430;10.586;2023-03-20T19:23:49;15.00;;;9.55;;
38182;SDS011;23991;52.430;10.586;2023-03-20T19:26:16;15.82;;;9.98;;
38182;SDS011;23991;52.430;10.586;2023-03-20T19:31:33;10.35;;;8.35;;
38182;SDS011;23991;52.430;10.586;2023-03-20T19:33:58;10.55;;;8.10;;
38182;SDS011;23991;52.430;10.586;2023-03-20T19:36:25;16.15;;;8.98;;
38182;SDS011;23991;52.430;10.586;2023-03-20T19:38:55;14.38;;;8.25;;
38182;SDS011;23991;52.430;10.586;2023-03-20T19:41:23;14.50;;;9.00;;
38182;SDS011;23991;52.430;10.586;2023-03-20T19:43:49;18.10;;;8.18;;
38182;SDS011;23991;52.430;10.586;2023-03-20T19:46:15;12.55;;;9.20;;
38182;SDS011;23991;52.430;10.586;2023-03-20T19:48:42;15.68;;;8.43;;
38182;SDS011;23991;52.430;10.586;2023-03-20T19:51:12;11.32;;;7.90;;
38182;SDS011;23991;52.430;10.586;2023-03-20T19:53:40;11.68;;;7.88;;
38182;SDS011;23991;52.430;10.586;2023-03-20T19:56:06;10.30;;;7.43;;
38182;SDS011;23991;52.430;10.586;2023-03-20T19:58:34;11.77;;;7.75;;
38182;SDS011;23991;52.430;10.586;2023-03-20T20:11:06;12.10;;;6.68;;
38182;SDS011;23991;52.430;10.586;2023-03-20T20:13:33;9.70;;;5.80;;
38182;SDS011;23991;52.430;10.586;2023-03-20T20:15:59;10.00;;;6.05;;
38182;SDS011;23991;52.430;10.586;2023-03-20T20:18:26;11.68;;;5.85;;
38182;SDS011;23991;52.430;10.586;2023-03-20T20:20:53;7.80;;;5.57;;
38182;SDS011;23991;52.430;10.586;2023-03-20T20:23:21;9.68;;;5.50;;
38182;SDS011;23991;52.430;10.586;2023-03-20T20:25:49;8.10;;;5.35;;
38182;SDS011;23991;52.430;10.586;2023-03-20T20:28:17;9.90;;;5.35;;
38182;SDS011;23991;52.430;10.586;2023-03-20T20:40:52;9.40;;;5.95;;
38182;SDS011;23991;52.430;10.586;2023-03-20T20:43:18;8.73;;;5.40;;
38182;SDS011;23991;52.430;10.586;2023-03-20T20:45:44;8.40;;;5.35;;
38182;SDS011;23991;52.430;10.586;2023-03-20T20:48:10;8.82;;;5.95;;
38182;SDS011;23991;52.430;10.586;2023-03-20T20:50:36;9.95;;;6.63;;
38182;SDS011;23991;52.430;10.586;2023-03-20T20:53:03;12.00;;;6.13;;
38182;SDS011;23991;52.430;10.586;2023-03-20T20:55:29;11.77;;;7.15;;
38182;SDS011;23991;52.430;10.586;2023-03-20T20:57:55;10.43;;;6.35;;
38182;SDS011;23991;52.430;10.586;2023-03-20T21:10:27;12.25;;;7.10;;